sensor_id;sensor_type;location;lat;lon;timestamp;P1;durP1;ratioP1;P2;durP2;ratioP2
84288;SDS011;75147;50.294;18.660;2024-03-23T00:54:31;33.33;;;15.73;;
84288;SDS011;75147;50.294;18.660;2024-03-23T00:56:57;28.03;;;14.37;;
84288;SDS011;75147;50.294;18.660;2024-03-23T00:59:22;27.50;;;14.43;;
84288;SDS011;75147;50.294;18.660;2024-03-23T01:04:17;29.30;;;13.90;;
84288;SDS011;75147;50.294;18.660;2024-03-23T01:06:42;28.07;;;14.07;;
84288;SDS011;75147;50.294;18.660;2024-03-23T01:09:08;31.93;;;14.83;;
84288;SDS011;75147;50.294;18.660;2024-03-23T01:11:35;29.85;;;15.43;;
84288;SDS011;75147;50.294;18.660;2024-03-23T01:14:01;27.92;;;15.05;;
84288;SDS011;75147;50.294;18.660;2024-03-23T01:16:28;28.73;;;15.48;;
84288;SDS011;75147;50.294;18.660;2024-03-23T01:18:53;32.78;;;15.50;;
84288;SDS011;75147;50.294;18.660;2024-03-23T01:21:18;31.00;;;15.52;;
84288;SDS011;75147;50.294;18.660;2024-03-23T01:23:44;29.13;;;15.98;;
84288;SDS011;75147;50.294;18.660;2024-03-23T01:26:09;31.38;;;16.25;;
84288;SDS011;75147;50.294;18.660;2024-03-23T01:28:35;32.47;;;15.63;;
84288;SDS011;75147;50.294;18.660;2024-03-23T01:31:00;30.80;;;16.10;;
84288;SDS011;75147;50.294;18.660;2024-03-23T01:33:26;33.45;;;16.00;;
84288;SDS011;75147;50.294;18.660;2024-03-23T01:35:51;33.30;;;15.90;;
84288;SDS011;75147;50.294;18.660;2024-03-23T01:38:16;36.43;;;16.50;;
84288;SDS011;75147;50.294;18.660;2024-03-23T01:40:42;32.83;;;17.33;;
84288;SDS011;75147;50.294;18.660;2024-03-23T01:43:07;31.77;;;17.35;;
84288;SDS011;75147;50.294;18.660;2024-03-23T01:45:33;30.60;;;16.27;;
84288;SDS011;75147;50.294;18.660;2024-03-23T01:47:59;34.38;;;16.83;;
84288;SDS011;75147;50.294;18.660;2024-03-23T01:50:25;34.72;;;16.95;;
84288;SDS011;75147;50.294;18.660;2024-03-23T01:52:52;35.10;;;17.23;;
84288;SDS011;75147;50.294;18.660;2024-03-23T01:55:18;30.67;;;15.95;;
84288;SDS011;75147;50.294;18.660;2024-03-23T01:57:44;31.50;;;17.20;;
84288;SDS011;75147;50.294;18.660;2024-03-23T02:00:10;30.70;;;16.85;;
84288;SDS011;75147;50.294;18.660;2024-03-23T02:02:46;33.25;;;16.50;;
84288;SDS011;75147;50.294;18.660;2024-03-23T02:05:11;32.28;;;15.93;;
84288;SDS011;75147;50.294;18.660;2024-03-23T02:07:40;34.38;;;17.42;;
84288;SDS011;75147;50.294;18.660;2024-03-23T02:10:07;33.63;;;17.60;;
84288;SDS011;75147;50.294;18.660;2024-03-23T02:12:34;32.92;;;17.00;;
84288;SDS011;75147;50.294;18.660;2024-03-23T02:15:00;31.45;;;17.38;;
84288;SDS011;75147;50.294;18.660;2024-03-23T02:17:26;37.00;;;17.08;;
84288;SDS011;75147;50.294;18.660;2024-03-23T02:19:51;33.65;;;16.90;;
84288;SDS011;75147;50.294;18.660;2024-03-23T02:22:16;29.67;;;15.48;;
84288;SDS011;75147;50.294;18.660;2024-03-23T02:24:42;33.03;;;17.00;;
84288;SDS011;75147;50.294;18.660;2024-03-23T02:27:08;31.67;;;16.58;;
84288;SDS011;75147;50.294;18.660;2024-03-23T02:29:33;27.90;;;16.10;;
84288;SDS011;75147;50.294;18.660;2024-03-23T02:31:59;32.78;;;16.45;;
84288;SDS011;75147;50.294;18.660;2024-03-23T02:34:25;32.08;;;17.08;;
84288;SDS011;75147;50.294;18.660;2024-03-23T02:36:50;32.97;;;17.70;;
84288;SDS011;75147;50.294;18.660;2024-03-23T02:39:15;36.53;;;17.97;;
84288;SDS011;75147;50.294;18.660;2024-03-23T02:41:41;35.10;;;18.70;;
84288;SDS011;75147;50.294;18.660;2024-03-23T02:44:06;31.85;;;17.10;;
84288;SDS011;75147;50.294;18.660;2024-03-23T02:46:31;33.90;;;17.02;;
84288;SDS011;75147;50.294;18.660;2024-03-23T02:48:57;29.65;;;15.55;;
84288;SDS011;75147;50.294;18.660;2024-03-23T02:51:22;34.20;;;14.55;;
84288;SDS011;75147;50.294;18.660;2024-03-23T02:53:48;24.00;;;13.68;;
84288;SDS011;75147;50.294;18.660;2024-03-23T02:56:13;46.70;;;14.23;;
84288;SDS011;75147;50.294;18.660;2024-03-23T02:58:41;27.40;;;13.93;;
84288;SDS011;75147;50.294;18.660;2024-03-23T03:01:07;27.73;;;12.90;;
84288;SDS011;75147;50.294;18.660;2024-03-23T03:03:32;24.80;;;12.88;;
84288;SDS011;75147;50.294;18.660;2024-03-23T03:05:58;28.42;;;14.82;;
84288;SDS011;75147;50.294;18.660;2024-03-23T03:08:23;25.90;;;14.33;;
84288;SDS011;75147;50.294;18.660;2024-03-23T03:10:48;22.55;;;12.57;;
84288;SDS011;75147;50.294;18.660;2024-03-23T03:13:14;28.60;;;14.05;;
84288;SDS011;75147;50.294;18.660;2024-03-23T03:15:40;24.10;;;12.48;;
84288;SDS011;75147;50.294;18.660;2024-03-23T03:18:06;25.98;;;13.48;;
84288;SDS011;75147;50.294;18.660;2024-03-23T03:20:31;27.30;;;13.70;;
84288;SDS011;75147;50.294;18.660;2024-03-23T03:22:57;26.17;;;13.63;;
84288;SDS011;75147;50.294;18.660;2024-03-23T03:25:22;26.43;;;13.80;;
84288;SDS011;75147;50.294;18.660;2024-03-23T03:27:47;24.20;;;12.43;;
84288;SDS011;75147;50.294;18.660;2024-03-23T03:30:13;25.30;;;13.75;;
84288;SDS011;75147;50.294;18.660;2024-03-23T03:32:38;24.70;;;13.02;;
84288;SDS011;75147;50.294;18.660;2024-03-23T03:35:04;23.80;;;13.40;;
84288;SDS011;75147;50.294;18.660;2024-03-23T03:37:29;24.80;;;12.27;;
84288;SDS011;75147;50.294;18.660;2024-03-23T03:39:55;26.65;;;12.70;;
84288;SDS011;75147;50.294;18.660;2024-03-23T03:42:20;25.25;;;13.32;;
84288;SDS011;75147;50.294;18.660;2024-03-23T03:44:46;29.17;;;14.00;;
84288;SDS011;75147;50.294;18.660;2024-03-23T03:47:11;29.08;;;14.32;;
84288;SDS011;75147;50.294;18.660;2024-03-23T03:49:37;31.58;;;14.23;;
84288;SDS011;75147;50.294;18.660;2024-03-23T03:52:02;28.65;;;13.65;;
84288;SDS011;75147;50.294;18.660;2024-03-23T03:54:28;23.40;;;13.20;;
84288;SDS011;75147;50.294;18.660;2024-03-23T03:56:53;25.35;;;14.23;;
84288;SDS011;75147;50.294;18.660;2024-03-23T03:59:18;26.40;;;13.57;;
84288;SDS011;75147;50.294;18.660;2024-03-23T04:01:45;28.95;;;13.40;;
84288;SDS011;75147;50.294;18.660;2024-03-23T04:04:10;25.48;;;13.57;;
84288;SDS011;75147;50.294;18.660;2024-03-23T04:06:36;26.42;;;12.82;;
84288;SDS011;75147;50.294;18.660;2024-03-23T04:09:02;27.42;;;14.30;;
84288;SDS011;75147;50.294;18.660;2024-03-23T04:11:27;27.25;;;14.13;;
84288;SDS011;75147;50.294;18.660;2024-03-23T04:13:52;26.00;;;14.73;;
84288;SDS011;75147;50.294;18.660;2024-03-23T04:16:24;25.33;;;13.93;;
84288;SDS011;75147;50.294;18.660;2024-03-23T04:18:51;27.70;;;14.30;;
84288;SDS011;75147;50.294;18.660;2024-03-23T04:21:17;27.58;;;14.13;;
84288;SDS011;75147;50.294;18.660;2024-03-23T04:23:42;31.52;;;15.30;;
84288;SDS011;75147;50.294;18.660;2024-03-23T04:26:08;28.27;;;14.00;;
84288;SDS011;75147;50.294;18.660;2024-03-23T04:28:33;26.30;;;14.05;;
84288;SDS011;75147;50.294;18.660;2024-03-23T04:31:03;30.55;;;15.52;;
84288;SDS011;75147;50.294;18.660;2024-03-23T04:33:28;27.70;;;15.10;;
84288;SDS011;75147;50.294;18.660;2024-03-23T04:35:54;31.13;;;15.53;;
84288;SDS011;75147;50.294;18.660;2024-03-23T04:38:19;32.05;;;16.45;;
84288;SDS011;75147;50.294;18.660;2024-03-23T04:40:44;30.90;;;16.37;;
84288;SDS011;75147;50.294;18.660;2024-03-23T04:43:10;34.03;;;19.20;;
84288;SDS011;75147;50.294;18.660;2024-03-23T04:45:35;38.03;;;21.77;;
84288;SDS011;75147;50.294;18.660;2024-03-23T04:48:00;44.58;;;23.75;;
84288;SDS011;75147;50.294;18.660;2024-03-23T04:50:26;47.83;;;27.33;;
84288;SDS011;75147;50.294;18.660;2024-03-23T04:52:51;31.30;;;17.93;;
84288;SDS011;75147;50.294;18.660;2024-03-23T04:55:16;29.23;;;17.30;;
84288;SDS011;75147;50.294;18.660;2024-03-23T04:57:42;33.05;;;18.38;;
84288;SDS011;75147;50.294;18.660;2024-03-23T05:00:07;31.30;;;17.13;;
84288;SDS011;75147;50.294;18.660;2024-03-23T05:02:42;31.13;;;17.40;;
84288;SDS011;75147;50.294;18.660;2024-03-23T05:05:08;43.83;;;28.23;;
84288;SDS011;75147;50.294;18.660;2024-03-23T05:07:33;60.72;;;37.15;;
84288;SDS011;75147;50.294;18.660;2024-03-23T05:09:59;58.13;;;36.73;;
84288;SDS011;75147;50.294;18.660;2024-03-23T05:12:24;60.80;;;40.03;;
84288;SDS011;75147;50.294;18.660;2024-03-23T05:14:49;60.90;;;39.25;;
84288;SDS011;75147;50.294;18.660;2024-03-23T05:17:15;51.10;;;32.80;;
84288;SDS011;75147;50.294;18.660;2024-03-23T05:19:40;46.03;;;30.63;;
84288;SDS011;75147;50.294;18.660;2024-03-23T05:22:06;43.63;;;28.75;;
84288;SDS011;75147;50.294;18.660;2024-03-23T05:24:31;41.15;;;29.92;;
84288;SDS011;75147;50.294;18.660;2024-03-23T05:26:56;52.17;;;34.35;;
84288;SDS011;75147;50.294;18.660;2024-03-23T05:29:24;38.42;;;24.73;;
84288;SDS011;75147;50.294;18.660;2024-03-23T05:31:51;38.45;;;20.52;;
84288;SDS011;75147;50.294;18.660;2024-03-23T05:34:17;35.67;;;17.73;;
84288;SDS011;75147;50.294;18.660;2024-03-23T05:36:42;25.95;;;15.38;;
84288;SDS011;75147;50.294;18.660;2024-03-23T05:39:08;28.50;;;15.32;;
84288;SDS011;75147;50.294;18.660;2024-03-23T05:41:33;24.52;;;14.18;;
84288;SDS011;75147;50.294;18.660;2024-03-23T05:44:01;25.77;;;14.70;;
84288;SDS011;75147;50.294;18.660;2024-03-23T05:46:26;29.17;;;14.65;;
84288;SDS011;75147;50.294;18.660;2024-03-23T05:48:52;26.50;;;14.52;;
84288;SDS011;75147;50.294;18.660;2024-03-23T05:51:17;26.15;;;13.23;;
84288;SDS011;75147;50.294;18.660;2024-03-23T05:53:43;23.55;;;12.23;;
84288;SDS011;75147;50.294;18.660;2024-03-23T05:56:08;21.17;;;10.95;;
84288;SDS011;75147;50.294;18.660;2024-03-23T05:58:34;25.88;;;14.25;;
84288;SDS011;75147;50.294;18.660;2024-03-23T06:01:00;23.13;;;13.43;;
84288;SDS011;75147;50.294;18.660;2024-03-23T06:03:26;18.60;;;11.45;;
84288;SDS011;75147;50.294;18.660;2024-03-23T06:05:52;19.95;;;11.73;;
84288;SDS011;75147;50.294;18.660;2024-03-23T06:08:20;19.13;;;10.40;;
84288;SDS011;75147;50.294;18.660;2024-03-23T06:10:46;19.17;;;10.88;;
84288;SDS011;75147;50.294;18.660;2024-03-23T06:13:12;17.30;;;9.93;;
84288;SDS011;75147;50.294;18.660;2024-03-23T06:15:38;17.88;;;10.38;;
84288;SDS011;75147;50.294;18.660;2024-03-23T06:18:03;20.85;;;10.70;;
84288;SDS011;75147;50.294;18.660;2024-03-23T06:20:30;15.30;;;9.30;;
84288;SDS011;75147;50.294;18.660;2024-03-23T06:22:55;16.95;;;9.15;;
84288;SDS011;75147;50.294;18.660;2024-03-23T06:25:21;17.00;;;9.00;;
84288;SDS011;75147;50.294;18.660;2024-03-23T06:27:46;14.93;;;9.20;;
84288;SDS011;75147;50.294;18.660;2024-03-23T06:30:12;15.90;;;9.30;;
84288;SDS011;75147;50.294;18.660;2024-03-23T06:32:37;14.55;;;8.48;;
84288;SDS011;75147;50.294;18.660;2024-03-23T06:35:03;15.95;;;9.00;;
84288;SDS011;75147;50.294;18.660;2024-03-23T06:37:33;18.60;;;9.32;;
84288;SDS011;75147;50.294;18.660;2024-03-23T06:39:59;15.45;;;8.30;;
84288;SDS011;75147;50.294;18.660;2024-03-23T06:42:24;14.95;;;9.93;;
84288;SDS011;75147;50.294;18.660;2024-03-23T06:44:50;16.25;;;9.30;;
84288;SDS011;75147;50.294;18.660;2024-03-23T06:47:15;15.50;;;9.57;;
84288;SDS011;75147;50.294;18.660;2024-03-23T06:49:40;16.08;;;9.15;;
84288;SDS011;75147;50.294;18.660;2024-03-23T06:52:06;16.23;;;9.68;;
84288;SDS011;75147;50.294;18.660;2024-03-23T06:54:31;15.20;;;9.33;;
84288;SDS011;75147;50.294;18.660;2024-03-23T06:56:56;14.65;;;8.45;;
84288;SDS011;75147;50.294;18.660;2024-03-23T06:59:22;14.63;;;9.45;;
84288;SDS011;75147;50.294;18.660;2024-03-23T07:01:47;13.15;;;8.63;;
84288;SDS011;75147;50.294;18.660;2024-03-23T07:04:12;13.55;;;8.23;;
84288;SDS011;75147;50.294;18.660;2024-03-23T07:06:44;16.90;;;9.52;;
84288;SDS011;75147;50.294;18.660;2024-03-23T07:09:10;14.48;;;8.65;;
84288;SDS011;75147;50.294;18.660;2024-03-23T07:11:36;13.88;;;8.32;;
84288;SDS011;75147;50.294;18.660;2024-03-23T07:14:01;15.55;;;9.38;;
84288;SDS011;75147;50.294;18.660;2024-03-23T07:16:27;15.32;;;8.60;;
84288;SDS011;75147;50.294;18.660;2024-03-23T07:18:53;15.45;;;8.32;;
84288;SDS011;75147;50.294;18.660;2024-03-23T07:21:18;16.73;;;8.67;;
84288;SDS011;75147;50.294;18.660;2024-03-23T07:23:44;13.18;;;8.13;;
84288;SDS011;75147;50.294;18.660;2024-03-23T07:26:12;11.65;;;7.78;;
84288;SDS011;75147;50.294;18.660;2024-03-23T07:28:37;16.35;;;8.45;;
84288;SDS011;75147;50.294;18.660;2024-03-23T07:31:08;10.43;;;6.53;;
84288;SDS011;75147;50.294;18.660;2024-03-23T07:33:42;10.32;;;6.32;;
84288;SDS011;75147;50.294;18.660;2024-03-23T07:36:08;14.63;;;7.07;;
84288;SDS011;75147;50.294;18.660;2024-03-23T07:38:34;10.70;;;6.60;;
84288;SDS011;75147;50.294;18.660;2024-03-23T07:41:08;9.32;;;6.38;;
84288;SDS011;75147;50.294;18.660;2024-03-23T07:43:35;10.80;;;6.63;;
84288;SDS011;75147;50.294;18.660;2024-03-23T07:46:03;11.15;;;7.20;;
84288;SDS011;75147;50.294;18.660;2024-03-23T07:48:29;10.93;;;6.03;;
84288;SDS011;75147;50.294;18.660;2024-03-23T07:50:58;13.27;;;6.45;;
84288;SDS011;75147;50.294;18.660;2024-03-23T07:53:30;9.80;;;6.07;;
84288;SDS011;75147;50.294;18.660;2024-03-23T07:56:03;10.90;;;6.18;;
84288;SDS011;75147;50.294;18.660;2024-03-23T07:58:31;10.45;;;5.60;;
84288;SDS011;75147;50.294;18.660;2024-03-23T08:00:58;11.95;;;6.75;;
84288;SDS011;75147;50.294;18.660;2024-03-23T08:03:29;9.38;;;6.18;;
84288;SDS011;75147;50.294;18.660;2024-03-23T08:05:55;9.73;;;5.68;;
84288;SDS011;75147;50.294;18.660;2024-03-23T08:08:20;10.73;;;6.03;;
84288;SDS011;75147;50.294;18.660;2024-03-23T08:13:14;10.20;;;5.13;;
84288;SDS011;75147;50.294;18.660;2024-03-23T08:15:40;9.20;;;5.47;;
84288;SDS011;75147;50.294;18.660;2024-03-23T08:18:05;9.90;;;6.35;;
84288;SDS011;75147;50.294;18.660;2024-03-23T08:20:31;10.80;;;6.00;;
84288;SDS011;75147;50.294;18.660;2024-03-23T08:22:56;8.33;;;5.57;;
84288;SDS011;75147;50.294;18.660;2024-03-23T08:25:21;9.30;;;5.67;;
84288;SDS011;75147;50.294;18.660;2024-03-23T08:27:47;7.70;;;5.13;;
84288;SDS011;75147;50.294;18.660;2024-03-23T08:30:12;10.27;;;5.57;;
84288;SDS011;75147;50.294;18.660;2024-03-23T08:32:39;12.73;;;5.78;;
84288;SDS011;75147;50.294;18.660;2024-03-23T08:35:05;8.13;;;5.35;;
84288;SDS011;75147;50.294;18.660;2024-03-23T08:37:30;8.75;;;4.93;;
84288;SDS011;75147;50.294;18.660;2024-03-23T08:39:56;7.63;;;4.73;;
84288;SDS011;75147;50.294;18.660;2024-03-23T08:42:21;7.35;;;4.78;;
84288;SDS011;75147;50.294;18.660;2024-03-23T08:44:47;9.33;;;4.80;;
84288;SDS011;75147;50.294;18.660;2024-03-23T08:47:14;10.10;;;4.78;;
84288;SDS011;75147;50.294;18.660;2024-03-23T08:49:40;7.53;;;4.85;;
84288;SDS011;75147;50.294;18.660;2024-03-23T08:52:06;8.73;;;5.22;;
84288;SDS011;75147;50.294;18.660;2024-03-23T08:54:32;10.85;;;4.65;;
84288;SDS011;75147;50.294;18.660;2024-03-23T08:56:57;10.03;;;5.20;;
84288;SDS011;75147;50.294;18.660;2024-03-23T08:59:22;8.60;;;4.65;;
84288;SDS011;75147;50.294;18.660;2024-03-23T09:01:49;9.20;;;4.82;;
84288;SDS011;75147;50.294;18.660;2024-03-23T09:04:14;7.88;;;4.63;;
84288;SDS011;75147;50.294;18.660;2024-03-23T09:06:41;8.40;;;4.90;;
84288;SDS011;75147;50.294;18.660;2024-03-23T09:09:07;8.00;;;4.90;;
84288;SDS011;75147;50.294;18.660;2024-03-23T09:11:33;6.22;;;4.80;;
84288;SDS011;75147;50.294;18.660;2024-03-23T09:13:58;9.25;;;4.85;;
84288;SDS011;75147;50.294;18.660;2024-03-23T09:16:23;11.27;;;5.80;;
84288;SDS011;75147;50.294;18.660;2024-03-23T09:18:49;7.80;;;4.47;;
84288;SDS011;75147;50.294;18.660;2024-03-23T09:21:14;8.53;;;4.93;;
84288;SDS011;75147;50.294;18.660;2024-03-23T09:23:40;8.15;;;5.43;;
84288;SDS011;75147;50.294;18.660;2024-03-23T09:26:08;10.63;;;4.90;;
84288;SDS011;75147;50.294;18.660;2024-03-23T09:28:33;7.15;;;4.65;;
84288;SDS011;75147;50.294;18.660;2024-03-23T09:31:05;9.68;;;4.78;;
84288;SDS011;75147;50.294;18.660;2024-03-23T09:33:32;8.85;;;4.65;;
84288;SDS011;75147;50.294;18.660;2024-03-23T09:36:02;11.57;;;4.63;;
84288;SDS011;75147;50.294;18.660;2024-03-23T09:38:28;8.40;;;5.07;;
84288;SDS011;75147;50.294;18.660;2024-03-23T09:40:54;8.63;;;4.65;;
84288;SDS011;75147;50.294;18.660;2024-03-23T09:43:19;15.52;;;5.38;;
84288;SDS011;75147;50.294;18.660;2024-03-23T09:45:45;12.50;;;5.35;;
84288;SDS011;75147;50.294;18.660;2024-03-23T09:48:11;10.48;;;5.90;;
84288;SDS011;75147;50.294;18.660;2024-03-23T09:50:37;9.68;;;5.53;;
84288;SDS011;75147;50.294;18.660;2024-03-23T09:55:32;9.57;;;5.30;;
84288;SDS011;75147;50.294;18.660;2024-03-23T09:57:59;12.25;;;5.85;;
84288;SDS011;75147;50.294;18.660;2024-03-23T10:00:24;9.77;;;5.82;;
84288;SDS011;75147;50.294;18.660;2024-03-23T10:02:50;10.85;;;5.15;;
84288;SDS011;75147;50.294;18.660;2024-03-23T10:05:22;11.80;;;6.15;;
84288;SDS011;75147;50.294;18.660;2024-03-23T10:07:52;11.38;;;5.50;;
84288;SDS011;75147;50.294;18.660;2024-03-23T10:10:18;13.95;;;5.97;;
84288;SDS011;75147;50.294;18.660;2024-03-23T10:12:47;8.82;;;5.43;;
84288;SDS011;75147;50.294;18.660;2024-03-23T10:15:20;11.55;;;5.05;;
84288;SDS011;75147;50.294;18.660;2024-03-23T10:17:49;9.82;;;4.78;;
84288;SDS011;75147;50.294;18.660;2024-03-23T10:20:21;8.00;;;4.60;;
84288;SDS011;75147;50.294;18.660;2024-03-23T10:22:48;6.60;;;4.63;;
84288;SDS011;75147;50.294;18.660;2024-03-23T10:25:14;8.55;;;4.68;;
84288;SDS011;75147;50.294;18.660;2024-03-23T10:27:40;8.90;;;4.65;;
84288;SDS011;75147;50.294;18.660;2024-03-23T10:30:12;8.77;;;4.47;;
84288;SDS011;75147;50.294;18.660;2024-03-23T10:32:40;9.05;;;4.60;;
84288;SDS011;75147;50.294;18.660;2024-03-23T10:37:41;7.82;;;4.60;;
84288;SDS011;75147;50.294;18.660;2024-03-23T10:40:09;8.73;;;5.55;;
84288;SDS011;75147;50.294;18.660;2024-03-23T10:42:36;9.13;;;5.45;;
84288;SDS011;75147;50.294;18.660;2024-03-23T10:45:03;7.68;;;4.90;;
84288;SDS011;75147;50.294;18.660;2024-03-23T10:47:30;9.20;;;4.25;;
84288;SDS011;75147;50.294;18.660;2024-03-23T10:49:56;6.07;;;4.30;;
84288;SDS011;75147;50.294;18.660;2024-03-23T10:52:22;7.80;;;4.47;;
84288;SDS011;75147;50.294;18.660;2024-03-23T10:54:47;7.03;;;4.80;;
84288;SDS011;75147;50.294;18.660;2024-03-23T10:57:21;8.82;;;4.20;;
84288;SDS011;75147;50.294;18.660;2024-03-23T10:59:52;6.78;;;4.00;;
84288;SDS011;75147;50.294;18.660;2024-03-23T11:02:20;11.10;;;4.63;;
84288;SDS011;75147;50.294;18.660;2024-03-23T11:04:47;7.05;;;3.70;;
84288;SDS011;75147;50.294;18.660;2024-03-23T11:09:50;7.72;;;4.40;;
84288;SDS011;75147;50.294;18.660;2024-03-23T11:14:56;6.95;;;4.78;;
84288;SDS011;75147;50.294;18.660;2024-03-23T11:17:24;12.43;;;5.88;;
84288;SDS011;75147;50.294;18.660;2024-03-23T11:19:53;6.65;;;4.35;;
84288;SDS011;75147;50.294;18.660;2024-03-23T11:25:02;8.35;;;4.45;;
84288;SDS011;75147;50.294;18.660;2024-03-23T11:27:40;5.82;;;3.70;;
84288;SDS011;75147;50.294;18.660;2024-03-23T11:30:12;4.72;;;3.03;;
84288;SDS011;75147;50.294;18.660;2024-03-23T11:32:41;7.10;;;3.40;;
84288;SDS011;75147;50.294;18.660;2024-03-23T11:35:07;5.20;;;2.90;;
84288;SDS011;75147;50.294;18.660;2024-03-23T11:37:35;6.25;;;3.20;;
84288;SDS011;75147;50.294;18.660;2024-03-23T11:40:01;7.13;;;3.13;;
84288;SDS011;75147;50.294;18.660;2024-03-23T11:42:44;4.68;;;3.05;;
84288;SDS011;75147;50.294;18.660;2024-03-23T11:45:09;4.97;;;3.22;;
84288;SDS011;75147;50.294;18.660;2024-03-23T11:47:35;7.30;;;3.15;;
84288;SDS011;75147;50.294;18.660;2024-03-23T11:50:00;5.43;;;3.75;;
84288;SDS011;75147;50.294;18.660;2024-03-23T11:52:25;6.37;;;3.50;;
84288;SDS011;75147;50.294;18.660;2024-03-23T11:54:51;5.15;;;3.38;;
84288;SDS011;75147;50.294;18.660;2024-03-23T11:57:16;9.23;;;6.83;;
84288;SDS011;75147;50.294;18.660;2024-03-23T11:59:42;4.25;;;3.33;;
84288;SDS011;75147;50.294;18.660;2024-03-23T12:02:09;8.60;;;4.43;;
84288;SDS011;75147;50.294;18.660;2024-03-23T12:04:41;5.00;;;3.10;;
84288;SDS011;75147;50.294;18.660;2024-03-23T12:07:17;5.82;;;3.20;;
84288;SDS011;75147;50.294;18.660;2024-03-23T12:09:44;3.85;;;2.47;;
84288;SDS011;75147;50.294;18.660;2024-03-23T12:12:16;6.78;;;2.83;;
84288;SDS011;75147;50.294;18.660;2024-03-23T12:15:01;5.40;;;2.33;;
84288;SDS011;75147;50.294;18.660;2024-03-23T12:17:28;4.60;;;2.40;;
84288;SDS011;75147;50.294;18.660;2024-03-23T12:19:53;4.20;;;2.40;;
84288;SDS011;75147;50.294;18.660;2024-03-23T12:22:22;5.15;;;2.45;;
84288;SDS011;75147;50.294;18.660;2024-03-23T12:24:48;5.40;;;2.47;;
84288;SDS011;75147;50.294;18.660;2024-03-23T12:27:14;4.38;;;2.50;;
84288;SDS011;75147;50.294;18.660;2024-03-23T12:29:39;3.28;;;2.58;;
84288;SDS011;75147;50.294;18.660;2024-03-23T12:32:06;3.33;;;2.20;;
84288;SDS011;75147;50.294;18.660;2024-03-23T12:34:32;4.60;;;2.45;;
84288;SDS011;75147;50.294;18.660;2024-03-23T12:36:58;3.63;;;2.20;;
84288;SDS011;75147;50.294;18.660;2024-03-23T12:39:23;3.88;;;2.28;;
84288;SDS011;75147;50.294;18.660;2024-03-23T12:41:49;4.00;;;2.70;;
84288;SDS011;75147;50.294;18.660;2024-03-23T12:44:15;5.63;;;3.08;;
84288;SDS011;75147;50.294;18.660;2024-03-23T12:46:43;4.30;;;2.30;;
84288;SDS011;75147;50.294;18.660;2024-03-23T12:49:09;4.47;;;2.70;;
84288;SDS011;75147;50.294;18.660;2024-03-23T12:51:35;3.80;;;2.55;;
84288;SDS011;75147;50.294;18.660;2024-03-23T12:54:00;4.65;;;2.67;;
84288;SDS011;75147;50.294;18.660;2024-03-23T12:56:26;3.67;;;2.53;;
84288;SDS011;75147;50.294;18.660;2024-03-23T12:58:53;3.90;;;2.70;;
84288;SDS011;75147;50.294;18.660;2024-03-23T13:01:20;6.95;;;3.03;;
84288;SDS011;75147;50.294;18.660;2024-03-23T13:03:46;2.90;;;2.20;;
84288;SDS011;75147;50.294;18.660;2024-03-23T13:06:12;3.88;;;2.40;;
84288;SDS011;75147;50.294;18.660;2024-03-23T13:08:38;4.15;;;2.60;;
84288;SDS011;75147;50.294;18.660;2024-03-23T13:11:05;3.10;;;2.35;;
84288;SDS011;75147;50.294;18.660;2024-03-23T13:13:30;6.28;;;2.72;;
84288;SDS011;75147;50.294;18.660;2024-03-23T13:15:58;4.35;;;2.45;;
84288;SDS011;75147;50.294;18.660;2024-03-23T13:18:23;4.60;;;2.75;;
84288;SDS011;75147;50.294;18.660;2024-03-23T13:20:49;7.78;;;2.58;;
84288;SDS011;75147;50.294;18.660;2024-03-23T13:23:14;3.35;;;2.50;;
84288;SDS011;75147;50.294;18.660;2024-03-23T13:25:39;4.90;;;1.80;;
84288;SDS011;75147;50.294;18.660;2024-03-23T13:28:05;2.42;;;1.50;;
84288;SDS011;75147;50.294;18.660;2024-03-23T13:30:30;3.55;;;1.60;;
84288;SDS011;75147;50.294;18.660;2024-03-23T13:32:56;3.33;;;1.40;;
84288;SDS011;75147;50.294;18.660;2024-03-23T13:35:21;1.92;;;1.23;;
84288;SDS011;75147;50.294;18.660;2024-03-23T13:37:47;3.45;;;1.30;;
84288;SDS011;75147;50.294;18.660;2024-03-23T13:40:13;1.88;;;1.25;;
84288;SDS011;75147;50.294;18.660;2024-03-23T13:42:39;2.22;;;1.17;;
84288;SDS011;75147;50.294;18.660;2024-03-23T13:45:04;2.10;;;1.10;;
84288;SDS011;75147;50.294;18.660;2024-03-23T13:47:30;3.95;;;1.50;;
84288;SDS011;75147;50.294;18.660;2024-03-23T13:49:55;3.37;;;1.70;;
84288;SDS011;75147;50.294;18.660;2024-03-23T13:52:21;1.90;;;1.23;;
84288;SDS011;75147;50.294;18.660;2024-03-23T13:54:48;2.78;;;1.45;;
84288;SDS011;75147;50.294;18.660;2024-03-23T13:57:13;2.65;;;1.60;;
84288;SDS011;75147;50.294;18.660;2024-03-23T13:59:39;2.90;;;1.50;;
84288;SDS011;75147;50.294;18.660;2024-03-23T14:02:04;7.50;;;2.00;;
84288;SDS011;75147;50.294;18.660;2024-03-23T14:04:30;2.60;;;1.83;;
84288;SDS011;75147;50.294;18.660;2024-03-23T14:06:55;3.60;;;1.80;;
84288;SDS011;75147;50.294;18.660;2024-03-23T14:09:20;3.08;;;1.50;;
84288;SDS011;75147;50.294;18.660;2024-03-23T14:11:48;4.15;;;1.63;;
84288;SDS011;75147;50.294;18.660;2024-03-23T14:14:13;2.45;;;1.65;;
84288;SDS011;75147;50.294;18.660;2024-03-23T14:16:42;4.65;;;2.30;;
84288;SDS011;75147;50.294;18.660;2024-03-23T14:19:07;4.03;;;2.20;;
84288;SDS011;75147;50.294;18.660;2024-03-23T14:21:33;2.35;;;1.85;;
84288;SDS011;75147;50.294;18.660;2024-03-23T14:24:02;3.70;;;2.20;;
84288;SDS011;75147;50.294;18.660;2024-03-23T14:26:27;3.50;;;2.20;;
84288;SDS011;75147;50.294;18.660;2024-03-23T14:28:53;3.50;;;2.33;;
84288;SDS011;75147;50.294;18.660;2024-03-23T14:31:18;3.20;;;2.30;;
84288;SDS011;75147;50.294;18.660;2024-03-23T14:33:44;3.10;;;2.22;;
84288;SDS011;75147;50.294;18.660;2024-03-23T14:36:13;4.13;;;2.50;;
84288;SDS011;75147;50.294;18.660;2024-03-23T14:38:39;3.42;;;2.28;;
84288;SDS011;75147;50.294;18.660;2024-03-23T14:41:04;4.32;;;2.50;;
84288;SDS011;75147;50.294;18.660;2024-03-23T14:43:29;4.27;;;2.33;;
84288;SDS011;75147;50.294;18.660;2024-03-23T14:48:37;3.70;;;1.58;;
84288;SDS011;75147;50.294;18.660;2024-03-23T14:51:04;3.22;;;1.80;;
84288;SDS011;75147;50.294;18.660;2024-03-23T14:53:33;2.72;;;1.90;;
84288;SDS011;75147;50.294;18.660;2024-03-23T14:56:00;3.30;;;2.08;;
84288;SDS011;75147;50.294;18.660;2024-03-23T14:58:27;3.78;;;2.30;;
84288;SDS011;75147;50.294;18.660;2024-03-23T15:00:52;4.68;;;2.97;;
84288;SDS011;75147;50.294;18.660;2024-03-23T15:03:18;5.55;;;3.10;;
84288;SDS011;75147;50.294;18.660;2024-03-23T15:05:53;6.18;;;3.33;;
84288;SDS011;75147;50.294;18.660;2024-03-23T15:08:22;8.23;;;4.13;;
84288;SDS011;75147;50.294;18.660;2024-03-23T15:10:48;8.32;;;4.00;;
84288;SDS011;75147;50.294;18.660;2024-03-23T15:13:14;4.25;;;2.45;;
84288;SDS011;75147;50.294;18.660;2024-03-23T15:15:40;6.53;;;2.63;;
84288;SDS011;75147;50.294;18.660;2024-03-23T15:18:08;3.97;;;2.50;;
84288;SDS011;75147;50.294;18.660;2024-03-23T15:20:36;5.53;;;3.10;;
84288;SDS011;75147;50.294;18.660;2024-03-23T15:23:02;5.13;;;3.03;;
84288;SDS011;75147;50.294;18.660;2024-03-23T15:25:28;6.10;;;2.72;;
84288;SDS011;75147;50.294;18.660;2024-03-23T15:27:53;6.93;;;3.60;;
84288;SDS011;75147;50.294;18.660;2024-03-23T15:30:20;4.38;;;2.88;;
84288;SDS011;75147;50.294;18.660;2024-03-23T15:32:45;6.15;;;3.63;;